createdAt,value
2024-05-09T00:01:51.593Z,12.25
2024-05-09T00:04:21.116Z,14.23
2024-05-09T00:06:50.664Z,12.70
2024-05-09T00:09:20.190Z,11.52
2024-05-09T00:11:49.845Z,14.15
2024-05-09T00:14:19.570Z,13.95
2024-05-09T00:16:52.262Z,11.77
2024-05-09T00:19:21.953Z,14.27
2024-05-09T00:21:51.512Z,10.52
2024-05-09T00:24:21.103Z,12.10
2024-05-09T00:26:50.680Z,12.98
2024-05-09T00:29:20.267Z,12.25
2024-05-09T00:31:52.445Z,12.75
2024-05-09T00:34:22.066Z,13.32
2024-05-09T00:36:51.737Z,12.23
2024-05-09T00:39:21.291Z,10.70
2024-05-09T00:41:50.857Z,18.80
2024-05-09T00:44:20.439Z,11.85
2024-05-09T00:46:55.406Z,12.80
2024-05-09T00:49:26.180Z,10.93
2024-05-09T00:51:56.989Z,14.25
2024-05-09T00:54:27.138Z,14.23
2024-05-09T00:56:57.144Z,13.38
2024-05-09T00:59:27.495Z,12.32
2024-05-09T01:02:01.430Z,11.95
2024-05-09T01:04:31.011Z,12.63
2024-05-09T01:07:00.659Z,12.02
2024-05-09T01:09:30.336Z,18.35
2024-05-09T01:11:59.974Z,12.65
2024-05-09T01:14:29.692Z,14.50
2024-05-09T01:17:02.014Z,13.48
2024-05-09T01:19:33.100Z,12.68
2024-05-09T01:22:04.292Z,13.50
2024-05-09T01:24:36.417Z,12.63
2024-05-09T01:27:06.215Z,12.98
2024-05-09T01:29:35.833Z,12.52
2024-05-09T01:32:05.538Z,12.05
2024-05-09T01:34:35.161Z,14.02
2024-05-09T01:37:04.704Z,13.32
2024-05-09T01:39:36.859Z,14.38
2024-05-09T01:42:06.836Z,13.73
2024-05-09T01:44:36.407Z,11.57
2024-05-09T01:47:06.184Z,14.05
2024-05-09T01:49:39.136Z,14.88
2024-05-09T01:52:08.916Z,12.63
2024-05-09T01:54:41.088Z,14.07
2024-05-09T01:57:10.621Z,15.07
2024-05-09T01:59:40.192Z,13.13
2024-05-09T02:02:10.156Z,13.90
2024-05-09T02:04:39.939Z,15.18
2024-05-09T02:07:10.327Z,13.15
2024-05-09T02:09:42.408Z,13.45
2024-05-09T02:12:12.608Z,12.35
2024-05-09T02:14:42.311Z,12.77
2024-05-09T02:17:11.975Z,11.13
2024-05-09T02:19:41.557Z,15.18
2024-05-09T02:22:11.221Z,14.38
2024-05-09T02:24:43.384Z,11.57
2024-05-09T02:27:12.932Z,14.00
2024-05-09T02:29:42.591Z,13.27
2024-05-09T02:32:12.182Z,14.57
2024-05-09T02:34:41.844Z,12.90
2024-05-09T02:37:11.383Z,12.77
2024-05-09T02:39:40.914Z,13.20
2024-05-09T02:42:10.403Z,14.27
2024-05-09T02:44:37.410Z,14.35
2024-05-09T02:47:07.529Z,13.85
2024-05-09T02:49:34.623Z,14.35
2024-05-09T02:52:04.193Z,14.93
2024-05-09T02:54:31.195Z,14.77
2024-05-09T02:57:03.337Z,15.57
2024-05-09T02:59:30.294Z,13.05
2024-05-09T03:01:59.955Z,15.85
2024-05-09T03:04:26.955Z,18.33
2024-05-09T03:06:56.545Z,13.40
2024-05-09T03:09:24.185Z,15.25
2024-05-09T03:11:54.726Z,16.58
2024-05-09T03:14:24.492Z,14.85
2024-05-09T03:16:54.056Z,15.20
2024-05-09T03:19:21.168Z,16.42
2024-05-09T03:21:50.962Z,15.20
2024-05-09T03:24:17.862Z,16.45
2024-05-09T03:26:47.444Z,17.90
2024-05-09T03:29:14.435Z,14.38
2024-05-09T03:31:46.680Z,18.42
2024-05-09T03:34:13.687Z,17.23
2024-05-09T03:36:46.223Z,17.75
2024-05-09T03:39:15.729Z,16.73
2024-05-09T03:41:45.341Z,17.80
2024-05-09T03:44:14.985Z,19.05
2024-05-09T03:46:44.621Z,16.23
2024-05-09T03:49:14.447Z,15.57
2024-05-09T03:51:41.480Z,15.35
2024-05-09T03:54:11.006Z,18.17
2024-05-09T03:56:38.166Z,17.23
2024-05-09T03:59:07.767Z,16.02
2024-05-09T04:01:34.801Z,16.17
2024-05-09T04:04:08.975Z,16.90
2024-05-09T04:06:36.055Z,16.58
2024-05-09T04:09:05.591Z,17.02
2024-05-09T04:11:32.721Z,16.48
2024-05-09T04:14:02.345Z,14.68
2024-05-09T04:16:29.296Z,15.57
2024-05-09T04:18:58.938Z,18.13
2024-05-09T04:21:28.566Z,15.48
2024-05-09T04:23:58.087Z,17.40
2024-05-09T04:26:25.107Z,19.00
2024-05-09T04:28:54.739Z,18.48
2024-05-09T04:31:21.682Z,15.40
2024-05-09T04:33:51.338Z,16.92
2024-05-09T04:36:18.553Z,14.93
2024-05-09T04:38:50.694Z,20.00
2024-05-09T04:41:17.638Z,17.60
2024-05-09T04:43:47.248Z,15.43
2024-05-09T04:46:14.924Z,15.65
2024-05-09T04:48:45.121Z,16.75
2024-05-09T04:51:12.177Z,15.85
2024-05-09T04:53:41.730Z,16.30
2024-05-09T04:56:11.356Z,14.00
2024-05-09T04:58:40.908Z,13.07
2024-05-09T05:01:07.891Z,14.60
2024-05-09T05:03:37.494Z,15.43
2024-05-09T05:06:04.667Z,14.27
2024-05-09T05:08:34.332Z,13.02
2024-05-09T05:11:01.494Z,15.68
2024-05-09T05:13:38.566Z,17.45
2024-05-09T05:16:07.341Z,15.13
2024-05-09T05:18:36.988Z,16.58
2024-05-09T05:21:04.285Z,13.02
2024-05-09T05:23:34.124Z,16.75
2024-05-09T05:26:01.149Z,15.73
2024-05-09T05:28:30.753Z,15.20
2024-05-09T05:31:00.312Z,14.10
2024-05-09T05:33:30.075Z,15.77
2024-05-09T05:35:57.399Z,14.20
2024-05-09T05:38:28.382Z,14.82
2024-05-09T05:40:55.978Z,16.42
2024-05-09T05:43:25.586Z,14.95
2024-05-09T05:45:52.499Z,12.80
2024-05-09T05:48:24.797Z,14.20
2024-05-09T05:50:51.880Z,13.40
2024-05-09T05:53:21.491Z,15.20
2024-05-09T05:55:48.544Z,15.68
2024-05-09T05:58:20.228Z,13.50
2024-05-09T06:00:48.200Z,12.95
2024-05-09T06:03:17.849Z,15.30
2024-05-09T06:05:47.527Z,13.18
2024-05-09T06:08:17.166Z,13.93
2024-05-09T06:10:44.225Z,14.43
2024-05-09T06:13:15.770Z,13.05
2024-05-09T06:15:43.640Z,17.48
2024-05-09T06:18:14.154Z,14.85
2024-05-09T06:20:43.259Z,14.60
2024-05-09T06:23:17.045Z,13.75
2024-05-09T06:25:44.293Z,13.63
2024-05-09T06:28:14.044Z,12.07
2024-05-09T06:30:42.616Z,13.73
2024-05-09T06:33:15.841Z,14.93
2024-05-09T06:35:44.351Z,15.25
2024-05-09T06:38:16.841Z,14.13
2024-05-09T06:40:44.593Z,15.85
2024-05-09T06:43:17.371Z,12.60
2024-05-09T06:45:47.343Z,13.55
2024-05-09T06:48:17.539Z,13.30
2024-05-09T06:50:44.879Z,16.02
2024-05-09T06:53:18.431Z,14.43
2024-05-09T06:55:45.488Z,16.90
2024-05-09T06:58:15.112Z,16.85
2024-05-09T07:00:42.575Z,18.95
2024-05-09T07:03:14.713Z,18.95
2024-05-09T07:05:44.578Z,18.75
2024-05-09T07:08:17.169Z,15.93
2024-05-09T07:10:44.443Z,15.73
2024-05-09T07:13:15.785Z,14.75
2024-05-09T07:15:42.958Z,16.75
2024-05-09T07:18:15.557Z,19.00
2024-05-09T07:20:43.169Z,24.55
2024-05-09T07:23:13.338Z,18.13
2024-05-09T07:25:43.324Z,17.45
2024-05-09T07:28:13.847Z,17.85
2024-05-09T07:30:40.846Z,14.15
2024-05-09T07:33:12.236Z,19.98
2024-05-09T07:35:39.504Z,15.80
2024-05-09T07:38:09.373Z,18.80
2024-05-09T07:40:40.422Z,16.35
2024-05-09T07:43:11.605Z,15.15
2024-05-09T07:45:50.538Z,16.50
2024-05-09T07:52:37.325Z,13.43
2024-05-09T07:53:45.827Z,14.20
2024-05-09T07:56:21.246Z,13.77
2024-05-09T07:58:52.919Z,13.05
2024-05-09T08:01:22.766Z,15.23
2024-05-09T08:03:52.579Z,14.10
2024-05-09T08:06:19.612Z,18.17
2024-05-09T08:08:49.498Z,20.27
2024-05-09T08:11:16.534Z,22.30
2024-05-09T08:13:46.112Z,23.17
2024-05-09T08:16:16.285Z,19.73
2024-05-09T08:18:45.874Z,25.17
2024-05-09T08:21:12.850Z,24.58
2024-05-09T08:23:42.346Z,20.75
2024-05-09T08:26:09.266Z,20.20
2024-05-09T08:28:38.887Z,20.10
2024-05-09T08:31:07.196Z,18.00
2024-05-09T08:33:39.775Z,23.48
2024-05-09T08:36:07.146Z,21.52
2024-05-09T08:38:36.644Z,23.10
2024-05-09T08:41:04.491Z,18.42
2024-05-09T08:43:34.101Z,20.33
2024-05-09T08:46:04.337Z,21.50
2024-05-09T08:48:37.248Z,18.85
2024-05-09T08:51:07.191Z,20.63
2024-05-09T08:53:36.694Z,16.23
2024-05-09T08:56:05.868Z,25.83
2024-05-09T08:58:37.754Z,20.20
2024-05-09T09:01:04.965Z,19.65
2024-05-09T09:03:36.581Z,19.45
2024-05-09T09:06:08.850Z,22.90
2024-05-09T09:08:41.216Z,21.17
2024-05-09T09:11:08.115Z,21.45
2024-05-09T09:13:37.651Z,22.50
2024-05-09T09:16:05.230Z,20.42
2024-05-09T09:18:34.980Z,23.70
2024-05-09T09:21:02.908Z,19.60
2024-05-09T09:23:36.196Z,23.02
2024-05-09T09:26:03.142Z,22.00
2024-05-09T09:28:32.725Z,19.70
2024-05-09T09:31:03.309Z,21.80
2024-05-09T09:33:36.169Z,18.98
2024-05-09T09:36:04.981Z,19.05
2024-05-09T09:38:39.947Z,21.10
2024-05-09T09:41:08.917Z,15.90
2024-05-09T09:43:39.624Z,16.48
2024-05-09T09:46:10.729Z,14.13
2024-05-09T09:48:43.112Z,15.20
2024-05-09T09:51:10.740Z,12.73
2024-05-09T09:53:44.794Z,15.23
2024-05-09T09:56:12.169Z,13.35
2024-05-09T09:58:42.836Z,10.45
2024-05-09T10:01:10.281Z,14.07
2024-05-09T10:03:41.256Z,14.98
2024-05-09T10:06:11.225Z,17.45
2024-05-09T10:08:44.374Z,13.02
2024-05-09T10:11:11.598Z,13.20
2024-05-09T10:13:44.372Z,11.80
2024-05-09T10:16:14.405Z,18.30
2024-05-09T10:18:44.211Z,20.92
2024-05-09T10:21:17.984Z,16.48
2024-05-09T10:23:59.981Z,23.88
2024-05-09T10:26:34.005Z,21.88
2024-05-09T10:29:04.739Z,18.13
2024-05-09T10:31:32.309Z,20.85
2024-05-09T10:34:03.613Z,19.38
2024-05-09T10:36:30.909Z,14.32
2024-05-09T10:39:03.093Z,14.85
2024-05-09T10:41:30.023Z,14.10
2024-05-09T10:43:59.712Z,15.15
2024-05-09T10:46:26.802Z,11.40
2024-05-09T10:48:56.697Z,12.05
2024-05-09T10:51:24.852Z,14.75
2024-05-09T10:53:56.742Z,15.20
2024-05-09T10:56:26.424Z,14.32
2024-05-09T10:58:56.170Z,12.90
2024-05-09T11:01:23.451Z,11.70
2024-05-09T11:03:53.465Z,12.27
2024-05-09T11:06:20.711Z,13.73
2024-05-09T11:08:50.827Z,14.15
2024-05-09T11:11:18.011Z,11.95
2024-05-09T11:13:50.216Z,10.90
2024-05-09T11:16:19.712Z,12.40
2024-05-09T11:18:57.981Z,12.20
2024-05-09T11:21:25.512Z,15.18
2024-05-09T11:23:55.277Z,14.52
2024-05-09T11:26:22.699Z,10.10
2024-05-09T11:28:54.906Z,10.15
2024-05-09T11:31:22.002Z,8.88
2024-05-09T11:33:51.860Z,7.90
2024-05-09T11:36:18.904Z,10.25
2024-05-09T11:38:48.467Z,9.25
2024-05-09T11:41:17.436Z,10.35
2024-05-09T11:43:47.050Z,10.93
2024-05-09T11:46:16.808Z,15.13
2024-05-09T11:48:46.671Z,11.38
2024-05-09T11:51:13.728Z,11.98
2024-05-09T11:53:43.230Z,13.80
2024-05-09T11:56:12.001Z,18.20
2024-05-09T11:58:41.626Z,13.70
2024-05-09T12:01:08.667Z,10.35
2024-05-09T12:03:40.980Z,10.60
2024-05-09T12:06:08.119Z,18.52
2024-05-09T12:08:37.710Z,16.77
2024-05-09T12:11:05.255Z,33.13
2024-05-09T12:13:34.895Z,18.80
2024-05-09T12:16:01.975Z,14.35
2024-05-09T12:18:33.909Z,11.20
2024-05-09T12:21:03.942Z,8.82
2024-05-09T12:23:33.464Z,11.93
2024-05-09T12:26:00.576Z,11.40
2024-05-09T12:28:30.198Z,13.30
2024-05-09T12:30:57.216Z,10.25
2024-05-09T12:33:26.877Z,9.90
2024-05-09T12:35:53.930Z,14.95
2024-05-09T12:38:26.077Z,9.10
2024-05-09T12:40:53.203Z,11.48
2024-05-09T12:43:23.015Z,15.30
2024-05-09T12:45:50.172Z,11.68
2024-05-09T12:48:19.845Z,12.50
2024-05-09T12:50:46.872Z,12.13
2024-05-09T12:53:16.606Z,12.45
2024-05-09T12:55:53.583Z,10.95
2024-05-09T12:58:26.821Z,10.25
2024-05-09T13:00:54.010Z,9.45
2024-05-09T13:03:23.797Z,10.30
2024-05-09T13:05:51.668Z,12.05
2024-05-09T13:08:21.669Z,12.20
2024-05-09T13:10:51.366Z,9.52
2024-05-09T13:13:21.116Z,9.07
2024-05-09T13:15:48.159Z,8.90
2024-05-09T13:18:17.758Z,8.13
2024-05-09T13:20:44.942Z,8.48
2024-05-09T13:23:14.502Z,7.90
2024-05-09T13:25:41.422Z,14.75
2024-05-09T13:28:13.759Z,11.32
2024-05-09T13:30:42.347Z,11.05
2024-05-09T13:33:13.370Z,12.77
2024-05-09T13:35:45.722Z,10.40
2024-05-09T13:38:19.846Z,11.43
2024-05-09T13:40:47.620Z,11.90
2024-05-09T13:43:22.020Z,11.10
2024-05-09T13:45:49.743Z,10.73
2024-05-09T13:48:19.891Z,9.27
2024-05-09T13:50:47.300Z,13.93
2024-05-09T13:53:16.941Z,9.40
2024-05-09T13:55:43.958Z,10.63
2024-05-09T13:58:13.572Z,10.93
2024-05-09T14:00:48.007Z,12.00
2024-05-09T14:03:20.613Z,9.70
2024-05-09T14:05:49.951Z,10.98
2024-05-09T14:08:22.348Z,11.70
2024-05-09T14:10:50.396Z,8.93
2024-05-09T14:13:20.345Z,7.45
2024-05-09T14:15:50.277Z,13.55
2024-05-09T14:18:20.553Z,13.07
2024-05-09T14:20:47.545Z,14.18
2024-05-09T14:23:17.525Z,12.25
2024-05-09T14:25:46.055Z,10.65
2024-05-09T14:28:16.859Z,10.80
2024-05-09T14:30:43.839Z,9.73
2024-05-09T14:33:23.676Z,9.10
2024-05-09T14:35:50.814Z,10.73
2024-05-09T14:38:20.303Z,10.75
2024-05-09T14:40:47.350Z,10.93
2024-05-09T14:43:19.457Z,10.40
2024-05-09T14:45:46.682Z,7.75
2024-05-09T14:48:19.988Z,10.45
2024-05-09T14:50:47.229Z,8.02
2024-05-09T14:53:17.530Z,10.93
2024-05-09T14:55:44.714Z,6.57
2024-05-09T14:58:14.818Z,11.20
2024-05-09T15:00:46.751Z,9.10
2024-05-09T15:03:22.891Z,7.88
2024-05-09T15:05:51.081Z,9.68
2024-05-09T15:08:21.911Z,11.20
2024-05-09T15:10:50.223Z,7.63
2024-05-09T15:13:20.825Z,9.88
2024-05-09T15:15:48.202Z,9.45
2024-05-09T15:18:18.565Z,13.63
2024-05-09T15:20:48.878Z,10.23
2024-05-09T15:23:18.937Z,10.43
2024-05-09T15:25:45.917Z,8.48
2024-05-09T15:28:15.784Z,7.40
2024-05-09T15:30:46.285Z,6.47
2024-05-09T15:33:16.825Z,9.38
2024-05-09T15:35:46.233Z,6.63
2024-05-09T15:38:18.934Z,7.22
2024-05-09T15:40:46.250Z,6.47
2024-05-09T15:43:16.063Z,6.28
2024-05-09T15:45:43.091Z,6.82
2024-05-09T15:48:12.988Z,10.00
2024-05-09T15:50:41.997Z,9.18
2024-05-09T15:53:13.218Z,9.43
2024-05-09T15:55:46.070Z,11.50
2024-05-09T15:58:14.234Z,12.48
2024-05-09T16:00:46.933Z,12.70
2024-05-09T16:03:15.870Z,12.85
2024-05-09T16:05:47.363Z,11.98
2024-05-09T16:08:15.720Z,12.18
2024-05-09T16:10:49.695Z,10.30
2024-05-09T16:13:17.736Z,11.32
2024-05-09T16:15:48.205Z,10.38
2024-05-09T16:18:15.722Z,12.18
2024-05-09T16:20:48.272Z,13.55
2024-05-09T16:23:17.059Z,15.65
2024-05-09T16:25:51.444Z,13.63
2024-05-09T16:28:18.908Z,11.30
2024-05-09T16:30:48.673Z,13.43
2024-05-09T16:33:19.173Z,13.82
2024-05-09T16:35:49.346Z,13.27
2024-05-09T16:38:16.414Z,14.50
2024-05-09T16:40:46.136Z,11.45
2024-05-09T16:43:15.953Z,10.48
2024-05-09T16:45:46.465Z,11.10
2024-05-09T16:48:14.198Z,13.98
2024-05-09T16:50:44.124Z,12.32
2024-05-09T16:53:11.229Z,15.38
2024-05-09T16:55:40.835Z,18.02
2024-05-09T16:58:08.353Z,15.43
2024-05-09T17:00:43.268Z,16.25
2024-05-09T17:03:13.867Z,12.07
2024-05-09T17:05:46.035Z,12.15
2024-05-09T17:08:15.740Z,14.80
2024-05-09T17:10:45.592Z,13.27
2024-05-09T17:13:15.396Z,10.80
2024-05-09T17:15:48.070Z,11.48
2024-05-09T17:18:15.702Z,11.98
2024-05-09T17:20:45.465Z,10.05
2024-05-09T17:23:13.988Z,10.88
2024-05-09T17:25:44.249Z,11.80
2024-05-09T17:28:11.893Z,9.90
2024-05-09T17:30:42.808Z,11.75
2024-05-09T17:33:13.405Z,10.88
2024-05-09T17:35:45.807Z,9.50
2024-05-09T17:38:12.924Z,8.15
2024-05-09T17:40:42.504Z,9.35
2024-05-09T17:43:10.721Z,11.18
2024-05-09T17:45:41.627Z,10.38
2024-05-09T17:48:10.380Z,13.10
2024-05-09T17:50:43.337Z,9.40
2024-05-09T17:53:11.160Z,8.82
2024-05-09T17:55:41.665Z,6.95
2024-05-09T17:58:09.634Z,9.38
2024-05-09T18:00:41.933Z,9.95
2024-05-09T18:03:11.734Z,8.77
2024-05-09T18:05:45.570Z,8.38
2024-05-09T18:08:13.355Z,7.30
2024-05-09T18:10:44.411Z,10.40
2024-05-09T18:13:16.077Z,8.35
2024-05-09T18:15:45.709Z,8.68
2024-05-09T18:18:13.262Z,9.65
2024-05-09T18:20:46.434Z,7.82
2024-05-09T18:23:16.166Z,12.32
2024-05-09T18:25:48.118Z,8.95
2024-05-09T18:28:15.924Z,9.50
2024-05-09T18:30:45.870Z,11.43
2024-05-09T18:33:13.435Z,11.23
2024-05-09T18:35:47.268Z,8.70
2024-05-09T18:38:14.353Z,12.15
2024-05-09T18:40:46.229Z,12.63
2024-05-09T18:43:15.512Z,11.63
2024-05-09T18:45:45.162Z,12.63
2024-05-09T18:48:13.442Z,9.43
2024-05-09T18:50:43.155Z,11.45
2024-05-09T18:53:16.021Z,8.10
2024-05-09T18:55:45.840Z,11.55
2024-05-09T18:58:12.867Z,10.23
2024-05-09T19:00:45.369Z,11.27
2024-05-09T19:03:14.935Z,10.45
2024-05-09T19:05:46.332Z,11.07
2024-05-09T19:08:16.351Z,10.10
2024-05-09T19:10:46.489Z,9.13
2024-05-09T19:13:14.571Z,10.75
2024-05-09T19:15:45.058Z,10.77
2024-05-09T19:18:13.214Z,11.45
2024-05-09T19:20:43.810Z,11.10
2024-05-09T19:23:11.657Z,12.32
2024-05-09T19:25:44.090Z,12.50
2024-05-09T19:28:11.135Z,12.55
2024-05-09T19:30:42.477Z,11.75
2024-05-09T19:33:11.880Z,11.88
2024-05-09T19:35:42.800Z,11.20
2024-05-09T19:38:09.906Z,11.88
2024-05-09T19:40:39.511Z,14.20
2024-05-09T19:43:09.404Z,12.65
2024-05-09T19:45:39.399Z,12.23
2024-05-09T19:48:07.438Z,12.82
2024-05-09T19:50:42.519Z,15.25
2024-05-09T19:53:12.146Z,11.93
2024-05-09T19:55:41.998Z,12.57
2024-05-09T19:58:12.708Z,14.88
2024-05-09T20:00:44.077Z,10.77
2024-05-09T20:03:12.975Z,15.82
2024-05-09T20:05:43.172Z,16.98
2024-05-09T20:08:10.356Z,15.35
2024-05-09T20:10:40.230Z,13.68
2024-05-09T20:13:08.205Z,10.88
2024-05-09T20:15:40.918Z,15.73
2024-05-09T20:18:08.221Z,10.85
2024-05-09T20:20:41.663Z,12.50
2024-05-09T20:23:11.183Z,10.65
2024-05-09T20:25:40.984Z,13.38
2024-05-09T20:28:08.087Z,11.70
2024-05-09T20:30:40.621Z,13.85
2024-05-09T20:33:08.998Z,10.75
2024-05-09T20:35:39.446Z,11.45
2024-05-09T20:38:06.547Z,12.02
2024-05-09T20:40:38.922Z,11.93
2024-05-09T20:43:08.485Z,15.23
2024-05-09T20:45:41.287Z,10.45
2024-05-09T20:48:09.841Z,11.68
2024-05-09T20:50:42.030Z,11.40
2024-05-09T20:53:11.466Z,14.02
2024-05-09T20:55:41.570Z,14.70
2024-05-09T20:58:09.424Z,11.60
2024-05-09T21:00:44.689Z,11.88
2024-05-09T21:03:14.248Z,14.95
2024-05-09T21:05:45.269Z,12.85
2024-05-09T21:08:12.438Z,12.25
2024-05-09T21:10:42.062Z,10.90
2024-05-09T21:13:09.125Z,12.15
2024-05-09T21:15:41.381Z,11.20
2024-05-09T21:18:08.840Z,11.55
2024-05-09T21:20:38.552Z,13.07
2024-05-09T21:23:05.733Z,12.77
2024-05-09T21:25:35.264Z,11.95
2024-05-09T21:28:02.375Z,10.10
2024-05-09T21:30:40.708Z,10.90
2024-05-09T21:33:14.079Z,10.70
2024-05-09T21:35:45.238Z,13.48
2024-05-09T21:38:14.032Z,13.15
2024-05-09T21:40:44.545Z,13.13
2024-05-09T21:43:12.029Z,10.73
2024-05-09T21:45:41.654Z,12.07
2024-05-09T21:48:12.582Z,13.68
2024-05-09T21:50:42.654Z,11.63
2024-05-09T21:53:10.261Z,11.55
2024-05-09T21:55:39.921Z,14.65
2024-05-09T21:58:06.963Z,10.88
2024-05-09T22:00:39.415Z,14.50
2024-05-09T22:03:08.313Z,12.85
2024-05-09T22:05:43.851Z,15.27
2024-05-09T22:08:11.149Z,12.85
2024-05-09T22:10:41.046Z,16.25
2024-05-09T22:13:08.218Z,16.80
2024-05-09T22:15:40.349Z,13.65
2024-05-09T22:18:09.485Z,14.88
2024-05-09T22:20:45.761Z,14.75
2024-05-09T22:23:14.912Z,13.75
2024-05-09T22:25:44.897Z,14.05
2024-05-09T22:28:14.771Z,13.57
2024-05-09T22:30:46.239Z,13.35
2024-05-09T22:33:15.038Z,13.70
2024-05-09T22:35:47.586Z,16.40
2024-05-09T22:38:14.604Z,12.30
2024-05-09T22:40:48.385Z,12.98
2024-05-09T22:43:18.468Z,13.45
2024-05-09T22:45:49.036Z,15.88
2024-05-09T22:48:16.387Z,15.50
2024-05-09T22:50:48.730Z,18.02
2024-05-09T22:53:15.877Z,13.50
2024-05-09T22:55:45.460Z,15.45
2024-05-09T22:58:12.574Z,14.93
2024-05-09T23:00:42.285Z,14.10
2024-05-09T23:03:09.276Z,15.07
2024-05-09T23:05:38.904Z,13.25
2024-05-09T23:08:08.704Z,13.32
2024-05-09T23:10:38.643Z,13.68
2024-05-09T23:13:06.187Z,13.52
2024-05-09T23:15:36.071Z,15.05
2024-05-09T23:18:03.084Z,12.25
2024-05-09T23:20:37.764Z,14.38
2024-05-09T23:25:41.988Z,15.32
2024-05-09T23:28:09.380Z,13.57
2024-05-09T23:30:41.252Z,11.82
2024-05-09T23:33:10.451Z,13.70
2024-05-09T23:35:40.425Z,13.60
2024-05-09T23:38:10.065Z,14.48
2024-05-09T23:40:41.404Z,17.00
2024-05-09T23:43:10.040Z,13.57
2024-05-09T23:45:40.017Z,12.10
2024-05-09T23:48:08.061Z,14.77
2024-05-09T23:50:39.638Z,16.70
2024-05-09T23:53:10.959Z,15.13
2024-05-09T23:55:41.132Z,14.93
2024-05-09T23:58:08.201Z,13.70
